Observation data for Abernathy on 09/12/2017      Previous  Date  Next       Current Mesonet Observations  Soil Data  Daily Summary Page  Observations in Plain Language
KARS 120500Z 13004KT 17/12 A3015 RMK A01 T01680118  RH  075%=      5-min Rain = 0
KARS 120505Z 13004KT 17/12 A3015 RMK A01 T01670118  RH  075%=      5-min Rain = 0
KARS 120510Z 14005KT 17/12 A3015 RMK A01 T01670118  RH  076%=      5-min Rain = 0
KARS 120515Z 15004KT 17/12 A3015 RMK A01 T01670119  RH  076%=      5-min Rain = 0
KARS 120520Z 14004KT 17/12 A3015 RMK A01 T01670117  RH  075%=      5-min Rain = 0
KARS 120525Z 14004KT 17/12 A3015 RMK A01 T01690116  RH  074%=      5-min Rain = 0
KARS 120530Z 14005KT 17/11 A3015 RMK A01 T01700114  RH  072%=      5-min Rain = 0
KARS 120535Z 14005KT 17/11 A3015 RMK A01 T01710113  RH  071%=      5-min Rain = 0
KARS 120540Z 14005KT 17/11 A3014 RMK A01 T01700112  RH  071%=      5-min Rain = 0
KARS 120545Z 14005KT 17/11 A3014 RMK A01 T01690112  RH  072%=      5-min Rain = 0
KARS 120550Z 14006KT 17/11 A3014 RMK A01 T01690112  RH  072%=      5-min Rain = 0
KARS 120555Z 14006KT 17/11 A3014 RMK A01 T01670112  RH  073%=      5-min Rain = 0
KARS 120600Z 15006KT 17/11 A3014 RMK A01 T01650112  RH  073%=      5-min Rain = 0
KARS 120605Z 16005KT 17/11 A3014 RMK A01 T01650112  RH  074%=      5-min Rain = 0
KARS 120610Z 16004KT 16/11 A3014 RMK A01 T01620113  RH  075%=      5-min Rain = 0
KARS 120615Z 17004KT 16/11 A3014 RMK A01 T01620112  RH  075%=      5-min Rain = 0
KARS 120620Z 16004KT 16/11 A3014 RMK A01 T01630110  RH  073%=      5-min Rain = 0
KARS 120625Z 16004KT 16/11 A3014 RMK A01 T01640109  RH  073%=      5-min Rain = 0
KARS 120630Z 16004KT 17/11 A3014 RMK A01 T01650108  RH  072%=      5-min Rain = 0
KARS 120635Z 16005KT 17/11 A3013 RMK A01 T01660108  RH  071%=      5-min Rain = 0
KARS 120640Z 16004KT 17/11 A3013 RMK A01 T01660108  RH  071%=      5-min Rain = 0
KARS 120645Z 16004KT 17/11 A3013 RMK A01 T01650107  RH  071%=      5-min Rain = 0
KARS 120650Z 16004KT 16/11 A3013 RMK A01 T01640107  RH  071%=      5-min Rain = 0
KARS 120655Z 15005KT 16/11 A3013 RMK A01 T01620106  RH  072%=      5-min Rain = 0
KARS 120700Z 16004KT 16/11 A3013 RMK A01 T01610106  RH  073%=      5-min Rain = 0
KARS 120705Z 16004KT 16/11 A3013 RMK A01 T01610106  RH  072%=      5-min Rain = 0
KARS 120710Z 16005KT 16/11 A3013 RMK A01 T01620106  RH  072%=      5-min Rain = 0
KARS 120715Z 16005KT 16/11 A3013 RMK A01 T01610105  RH  072%=      5-min Rain = 0
KARS 120720Z 15004KT 16/11 A3013 RMK A01 T01600105  RH  072%=      5-min Rain = 0
KARS 120725Z 15004KT 16/11 A3012 RMK A01 T01600105  RH  072%=      5-min Rain = 0
KARS 120730Z 15004KT 16/11 A3012 RMK A01 T01590105  RH  073%=      5-min Rain = 0
KARS 120735Z 15004KT 16/11 A3012 RMK A01 T01580105  RH  073%=      5-min Rain = 0
KARS 120740Z 15004KT 16/11 A3012 RMK A01 T01560106  RH  074%=      5-min Rain = 0
KARS 120745Z 15004KT 16/11 A3012 RMK A01 T01550106  RH  075%=      5-min Rain = 0
KARS 120750Z 14004KT 15/11 A3012 RMK A01 T01540107  RH  076%=      5-min Rain = 0
KARS 120755Z 14004KT 15/11 A3012 RMK A01 T01530107  RH  077%=      5-min Rain = 0
KARS 120800Z 14004KT 15/11 A3012 RMK A01 T01520106  RH  077%=      5-min Rain = 0
KARS 120805Z 13004KT 15/11 A3012 RMK A01 T01520105  RH  076%=      5-min Rain = 0
KARS 120810Z 14003KT 15/10 A3012 RMK A01 T01510104  RH  076%=      5-min Rain = 0
KARS 120815Z 14003KT 15/10 A3012 RMK A01 T01500104  RH  076%=      5-min Rain = 0
KARS 120820Z 14004KT 15/10 A3012 RMK A01 T01500104  RH  076%=      5-min Rain = 0
KARS 120825Z 14004KT 15/10 A3011 RMK A01 T01500104  RH  077%=      5-min Rain = 0
KARS 120830Z 15004KT 15/10 A3011 RMK A01 T01490104  RH  077%=      5-min Rain = 0
KARS 120835Z 16004KT 15/10 A3011 RMK A01 T01490103  RH  077%=      5-min Rain = 0
KARS 120840Z 16003KT 15/10 A3011 RMK A01 T01490103  RH  076%=      5-min Rain = 0
KARS 120845Z 16003KT 15/10 A3011 RMK A01 T01480101  RH  076%=      5-min Rain = 0
KARS 120850Z 16002KT 15/10 A3011 RMK A01 T01470104  RH  078%=      5-min Rain = 0
KARS 120855Z 17002KT 15/11 A301 RMK A01 T01470105  RH  078%=      5-min Rain = 0
KARS 120900Z 16003KT 15/11 A301 RMK A01 T01470105  RH  078%=      5-min Rain = 0
KARS 120905Z 16003KT 15/10 A301 RMK A01 T01470104  RH  078%=      5-min Rain = 0
KARS 120910Z 18003KT 15/10 A3011 RMK A01 T01460104  RH  078%=      5-min Rain = 0
KARS 120915Z 19003KT 15/10 A301 RMK A01 T01500104  RH  077%=      5-min Rain = 0
KARS 120920Z 22003KT 15/10 A301 RMK A01 T01500104  RH  076%=      5-min Rain = 0
KARS 120925Z 23004KT 15/11 A301 RMK A01 T01460105  RH  079%=      5-min Rain = 0
KARS 120930Z 24004KT 14/11 A301 RMK A01 T01430109  RH  083%=      5-min Rain = 0
KARS 120935Z 22004KT 14/11 A301 RMK A01 T01420109  RH  084%=      5-min Rain = 0
KARS 120940Z 22005KT 14/11 A301 RMK A01 T01420108  RH  083%=      5-min Rain = 0
KARS 120945Z 22004KT 14/11 A301 RMK A01 T01420106  RH  082%=      5-min Rain = 0
KARS 120950Z 22005KT 14/11 A301 RMK A01 T01420105  RH  082%=      5-min Rain = 0
KARS 120955Z 23004KT 14/11 A301 RMK A01 T01410105  RH  082%=      5-min Rain = 0
KARS 121000Z 23004KT 14/10 A3009 RMK A01 T01380104  RH  083%=      5-min Rain = 0
KARS 121005Z 23004KT 14/10 A3009 RMK A01 T01360104  RH  083%=      5-min Rain = 0
KARS 121010Z 23004KT 14/10 A301 RMK A01 T01350103  RH  084%=      5-min Rain = 0
KARS 121015Z 24004KT 14/10 A301 RMK A01 T01350104  RH  085%=      5-min Rain = 0
KARS 121020Z 23004KT 14/11 A301 RMK A01 T01370105  RH  084%=      5-min Rain = 0
KARS 121025Z 22004KT 14/10 A301 RMK A01 T01380104  RH  083%=      5-min Rain = 0
KARS 121030Z 22003KT 14/10 A301 RMK A01 T01370104  RH  083%=      5-min Rain = 0
KARS 121035Z 23002KT 14/10 A301 RMK A01 T01360103  RH  083%=      5-min Rain = 0
KARS 121040Z 23002KT 14/10 A301 RMK A01 T01360103  RH  083%=      5-min Rain = 0
KARS 121045Z 25002KT 14/10 A301 RMK A01 T01350102  RH  084%=      5-min Rain = 0
KARS 121050Z 27002KT 14/11 A301 RMK A01 T01350105  RH  085%=      5-min Rain = 0
KARS 121055Z 29002KT 14/10 A301 RMK A01 T01350104  RH  084%=      5-min Rain = 0
KARS 121100Z 29001KT 13/10 A301 RMK A01 T01330104  RH  085%=      5-min Rain = 0
KARS 121105Z 32002KT 13/10 A301 RMK A01 T01320104  RH  086%=      5-min Rain = 0
KARS 121110Z 31003KT 13/10 A301 RMK A01 T01310103  RH  086%=      5-min Rain = 0
KARS 121115Z 30003KT 13/10 A301 RMK A01 T01300102  RH  086%=      5-min Rain = 0
KARS 121120Z 29003KT 13/10 A301 RMK A01 T01290101  RH  086%=      5-min Rain = 0
KARS 121125Z 29003KT 13/10 A301 RMK A01 T01280101  RH  086%=      5-min Rain = 0
KARS 121130Z 29003KT 13/10 A301 RMK A01 T01290101  RH  086%=      5-min Rain = 0
KARS 121135Z 31002KT 13/10 A301 RMK A01 T01300102  RH  086%=      5-min Rain = 0
KARS 121140Z 32002KT 13/10 A301 RMK A01 T01310103  RH  086%=      5-min Rain = 0
KARS 121145Z 32002KT 13/10 A301 RMK A01 T01320102  RH  085%=      5-min Rain = 0
KARS 121150Z 33002KT 13/10 A301 RMK A01 T01320101  RH  084%=      5-min Rain = 0
KARS 121155Z 34002KT 13/10 A301 RMK A01 T01320102  RH  085%=      5-min Rain = 0
KARS 121200Z 35002KT 13/10 A301 RMK A01 T01340103  RH  085%=      5-min Rain = 0
KARS 121205Z 35002KT 13/10 A301 RMK A01 T01340104  RH  085%=      5-min Rain = 0
KARS 121210Z 34002KT 13/10 A301 RMK A01 T01340104  RH  085%=      5-min Rain = 0
KARS 121215Z 32002KT 13/10 A301 RMK A01 T01330104  RH  086%=      5-min Rain = 0
KARS 121220Z 32001KT 13/11 A301 RMK A01 T01320106  RH  087%=      5-min Rain = 0
KARS 121225Z 33001KT 13/11 A301 RMK A01 T01310106  RH  087%=      5-min Rain = 0
KARS 121230Z 33001KT 13/11 A301 RMK A01 T01300105  RH  088%=      5-min Rain = 0
KARS 121235Z 34001KT 13/11 A301 RMK A01 T01290105  RH  088%=      5-min Rain = 0
KARS 121240Z 34000KT 13/11 A301 RMK A01 T01290105  RH  088%=      5-min Rain = 0
KARS 121245Z 34001KT 13/11 A301 RMK A01 T01290106  RH  089%=      5-min Rain = 0
KARS 121250Z 33001KT 13/11 A301 RMK A01 T01320107  RH  088%=      5-min Rain = 0
KARS 121255Z 31002KT 13/11 A3011 RMK A01 T01340107  RH  087%=      5-min Rain = 0
KARS 121300Z 30002KT 14/11 A3011 RMK A01 T01350108  RH  087%=      5-min Rain = 0
KARS 121305Z 30002KT 14/11 A3011 RMK A01 T01380111  RH  087%=      5-min Rain = 0
KARS 121310Z 30001KT 14/11 A3011 RMK A01 T01420114  RH  086%=      5-min Rain = 0
KARS 121315Z 30001KT 15/12 A3011 RMK A01 T01450116  RH  086%=      5-min Rain = 0
KARS 121320Z 30001KT 15/12 A3011 RMK A01 T01480118  RH  085%=      5-min Rain = 0
KARS 121325Z 25001KT 15/12 A3011 RMK A01 T01540122  RH  084%=      5-min Rain = 0
KARS 121330Z 23001KT 16/13 A3011 RMK A01 T01630127  RH  082%=      5-min Rain = 0
KARS 121335Z 22001KT 18/13 A3011 RMK A01 T01770132  RH  078%=      5-min Rain = 0
KARS 121340Z 21000KT 19/13 A3011 RMK A01 T01880134  RH  074%=      5-min Rain = 0
KARS 121345Z 18001KT 19/13 A3011 RMK A01 T01920130  RH  070%=      5-min Rain = 0
KARS 121350Z 16001KT 19/13 A3011 RMK A01 T01920129  RH  069%=      5-min Rain = 0
KARS 121355Z 17001KT 20/13 A3011 RMK A01 T01950131  RH  069%=      5-min Rain = 0
KARS 121400Z 18001KT 20/13 A301 RMK A01 T01980134  RH  069%=      5-min Rain = 0
KARS 121405Z 18002KT 20/13 A301 RMK A01 T01980126  RH  065%=      5-min Rain = 0
KARS 121410Z 18003KT 20/12 A301 RMK A01 T01970117  RH  062%=      5-min Rain = 0
KARS 121415Z 19003KT 20/12 A301 RMK A01 T01990120  RH  063%=      5-min Rain = 0
KARS 121420Z 20003KT 20/12 A301 RMK A01 T02010122  RH  063%=      5-min Rain = 0
KARS 121425Z 19003KT 20/12 A301 RMK A01 T02040123  RH  062%=      5-min Rain = 0
KARS 121430Z 18003KT 21/12 A301 RMK A01 T02090122  RH  060%=      5-min Rain = 0
KARS 121435Z 19003KT 21/12 A301 RMK A01 T02130119  RH  057%=      5-min Rain = 0
KARS 121440Z 20004KT 22/12 A301 RMK A01 T02180117  RH  055%=      5-min Rain = 0
KARS 121445Z 20004KT 22/11 A301 RMK A01 T02210114  RH  053%=      5-min Rain = 0
KARS 121450Z 18004KT 22/12 A301 RMK A01 T02230116  RH  052%=      5-min Rain = 0
KARS 121455Z 19004KT 23/11 A301 RMK A01 T02270114  RH  051%=      5-min Rain = 0
KARS 121500Z 20003KT 23/11 A301 RMK A01 T02280114  RH  050%=      5-min Rain = 0
KARS 121505Z 20004KT 23/12 A301 RMK A01 T02290116  RH  050%=      5-min Rain = 0
KARS 121510Z 19004KT 23/12 A301 RMK A01 T02320115  RH  049%=      5-min Rain = 0
KARS 121515Z 21002KT 24/12 A301 RMK A01 T02360115  RH  048%=      5-min Rain = 0
KARS 121520Z 19003KT 24/11 A301 RMK A01 T02390114  RH  047%=      5-min Rain = 0
KARS 121525Z 20003KT 24/12 A301 RMK A01 T02410115  RH  047%=      5-min Rain = 0
KARS 121530Z 22003KT 24/11 A301 RMK A01 T02430112  RH  045%=      5-min Rain = 0
KARS 121535Z 21003KT 24/11 A301 RMK A01 T02430113  RH  046%=      5-min Rain = 0
KARS 121540Z 22002KT 24/11 A301 RMK A01 T02440114  RH  046%=      5-min Rain = 0
KARS 121545Z 19004KT 25/11 A301 RMK A01 T02480114  RH  045%=      5-min Rain = 0
KARS 121550Z 20002KT 25/12 A301 RMK A01 T02510117  RH  045%=      5-min Rain = 0
KARS 121555Z 20004KT 25/11 A301 RMK A01 T02540114  RH  043%=      5-min Rain = 0
KARS 121600Z 21003KT 26/12 A301 RMK A01 T02550116  RH  043%=      5-min Rain = 0
KARS 121605Z 22003KT 26/12 A301 RMK A01 T02590119  RH  043%=      5-min Rain = 0
KARS 121610Z 23003KT 26/12 A3009 RMK A01 T02630120  RH  043%=      5-min Rain = 0
KARS 121615Z 23005KT 26/11 A3009 RMK A01 T02640114  RH  041%=      5-min Rain = 0
KARS 121620Z 24005KT 26/11 A3009 RMK A01 T02620112  RH  040%=      5-min Rain = 0
KARS 121625Z 23005KT 26/11 A3009 RMK A01 T02630110  RH  040%=      5-min Rain = 0
KARS 121630Z 21005KT 27/11 A3009 RMK A01 T02650113  RH  040%=      5-min Rain = 0
KARS 121635Z 23006KT 27/12 A3009 RMK A01 T02670115  RH  040%=      5-min Rain = 0
KARS 121640Z 23005KT 27/11 A3009 RMK A01 T02680111  RH  039%=      5-min Rain = 0
KARS 121645Z 22005KT 27/11 A3009 RMK A01 T02690114  RH  039%=      5-min Rain = 0
KARS 121650Z 21004KT 27/11 A3009 RMK A01 T02730114  RH  039%=      5-min Rain = 0
KARS 121655Z 23004KT 28/11 A3008 RMK A01 T02750111  RH  037%=      5-min Rain = 0
KARS 121700Z 24005KT 28/11 A3008 RMK A01 T02750112  RH  038%=      5-min Rain = 0
KARS 121705Z 26005KT 28/11 A3008 RMK A01 T02780107  RH  036%=      5-min Rain = 0
KARS 121710Z 26006KT 28/11 A3008 RMK A01 T02810113  RH  036%=      5-min Rain = 0
KARS 121715Z 24004KT 28/11 A3007 RMK A01 T02820111  RH  036%=      5-min Rain = 0
KARS 121720Z 22007KT 28/11 A3007 RMK A01 T02830112  RH  036%=      5-min Rain = 0
KARS 121725Z 22005KT 29/11 A3007 RMK A01 T02850106  RH  034%=      5-min Rain = 0
KARS 121730Z 20004KT 29/11 A3007 RMK A01 T02880107  RH  034%=      5-min Rain = 0
KARS 121735Z 25006KT 29/10 A3007 RMK A01 T02910101  RH  032%=      5-min Rain = 0
KARS 121740Z 27005KT 29/09 A3006 RMK A01 T02920093  RH  030%=      5-min Rain = 0
KARS 121745Z 28004KT 30/10 A3006 RMK A01 T02950096  RH  030%=      5-min Rain = 0
KARS 121750Z 30003KT 30/10 A3006 RMK A01 T02950097  RH  030%=      5-min Rain = 0
KARS 121755Z 29006G12KT 30/10 A3006 RMK A01 T03010101  RH  030%=      5-min Rain = 0
KARS 121800Z 29004KT 30/09 A3006 RMK A01 T03000094  RH  029%=      5-min Rain = 0
KARS 121805Z 25007KT 30/10 A3005 RMK A01 T03020095  RH  029%=      5-min Rain = 0
KARS 121810Z 29006KT 31/10 A3005 RMK A01 T03050095  RH  028%=      5-min Rain = 0
KARS 121815Z 30006KT 31/09 A3005 RMK A01 T03060088  RH  027%=      5-min Rain = 0
KARS 121820Z 31006KT 31/09 A3005 RMK A01 T03080090  RH  027%=      5-min Rain = 0
KARS 121825Z 29006KT 31/09 A3005 RMK A01 T03090088  RH  026%=      5-min Rain = 0
KARS 121830Z 29007KT 31/09 A3004 RMK A01 T03110090  RH  026%=      5-min Rain = 0
KARS 121835Z 28005KT 31/09 A3004 RMK A01 T03100088  RH  026%=      5-min Rain = 0
KARS 121840Z 31006KT 31/09 A3004 RMK A01 T03110085  RH  025%=      5-min Rain = 0
KARS 121845Z 34004KT 31/09 A3004 RMK A01 T03130090  RH  026%=      5-min Rain = 0
KARS 121850Z 31006KT 31/09 A3003 RMK A01 T03140088  RH  025%=      5-min Rain = 0
KARS 121855Z 30005KT 31/08 A3003 RMK A01 T03140081  RH  024%=      5-min Rain = 0
KARS 121900Z 32006KT 32/08 A3003 RMK A01 T03160077  RH  023%=      5-min Rain = 0
KARS 121905Z 28005KT 32/08 A3002 RMK A01 T03150080  RH  024%=      5-min Rain = 0
KARS 121910Z 29004KT 32/08 A3002 RMK A01 T03170084  RH  024%=      5-min Rain = 0
KARS 121915Z 30005KT 32/08 A3002 RMK A01 T03190081  RH  023%=      5-min Rain = 0
KARS 121920Z 27003KT 32/08 A3001 RMK A01 T03180083  RH  024%=      5-min Rain = 0
KARS 121925Z 31007KT 32/08 A3001 RMK A01 T03220080  RH  023%=      5-min Rain = 0
KARS 121930Z 29004KT 32/07 A3001 RMK A01 T03190071  RH  022%=      5-min Rain = 0
KARS 121935Z 34004G9KT 32/08 A3001 RMK A01 T03230080  RH  023%=      5-min Rain = 0
KARS 121940Z 32005G10KT 33/08 A3001 RMK A01 T03250077  RH  022%=      5-min Rain = 0
KARS 121945Z 32006KT 32/08 A30 RMK A01 T03240078  RH  022%=      5-min Rain = 0
KARS 121950Z 35004G9KT 33/08 A30 RMK A01 T03250083  RH  023%=      5-min Rain = 0
KARS 121955Z 33005KT 32/08 A30 RMK A01 T03240078  RH  022%=      5-min Rain = 0
KARS 122000Z 02007KT 32/09 A30 RMK A01 T03240085  RH  023%=      5-min Rain = 0
KARS 122005Z 34007G12KT 33/08 A30 RMK A01 T03250083  RH  023%=      5-min Rain = 0
KARS 122010Z 33005KT 32/08 A2999 RMK A01 T03240081  RH  023%=      5-min Rain = 0
KARS 122015Z 31001KT 33/09 A2999 RMK A01 T03250087  RH  024%=      5-min Rain = 0
KARS 122020Z 28003KT 33/09 A2999 RMK A01 T03310088  RH  023%=      5-min Rain = 0
KARS 122025Z 33006KT 33/09 A2998 RMK A01 T03280085  RH  023%=      5-min Rain = 0
KARS 122030Z 30006KT 33/09 A2998 RMK A01 T03290089  RH  024%=      5-min Rain = 0
KARS 122035Z 33005G10KT 33/09 A2998 RMK A01 T03300087  RH  023%=      5-min Rain = 0
KARS 122040Z 33007KT 33/08 A2998 RMK A01 T03300082  RH  022%=      5-min Rain = 0
KARS 122045Z 31006KT 33/08 A2997 RMK A01 T03280078  RH  022%=      5-min Rain = 0
KARS 122050Z 30002G7KT 33/08 A2997 RMK A01 T03280076  RH  022%=      5-min Rain = 0
KARS 122055Z 35006G11KT 33/08 A2997 RMK A01 T03300079  RH  022%=      5-min Rain = 0
KARS 122100Z 32005KT 33/08 A2997 RMK A01 T03280078  RH  022%=      5-min Rain = 0
KARS 122105Z 28008KT 33/09 A2996 RMK A01 T03280086  RH  023%=      5-min Rain = 0
KARS 122110Z 30006KT 33/08 A2996 RMK A01 T03290084  RH  023%=      5-min Rain = 0
KARS 122115Z 33003KT 33/07 A2996 RMK A01 T03290072  RH  021%=      5-min Rain = 0
KARS 122120Z 27001G6KT 33/08 A2996 RMK A01 T03310077  RH  021%=      5-min Rain = 0
KARS 122125Z 25004KT 33/08 A2996 RMK A01 T03330083  RH  022%=      5-min Rain = 0
KARS 122130Z 32003KT 33/08 A2995 RMK A01 T03330082  RH  022%=      5-min Rain = 0
KARS 122135Z 35006G11KT 33/08 A2995 RMK A01 T03320080  RH  022%=      5-min Rain = 0
KARS 122140Z 00008KT 33/08 A2995 RMK A01 T03290077  RH  022%=      5-min Rain = 0
KARS 122145Z 34007KT 33/08 A2995 RMK A01 T03260079  RH  022%=      5-min Rain = 0
KARS 122150Z 30003KT 33/08 A2995 RMK A01 T03300076  RH  021%=      5-min Rain = 0
KARS 122155Z 28003KT 33/08 A2995 RMK A01 T03330077  RH  021%=      5-min Rain = 0
KARS 122200Z 34004G9KT 34/08 A2995 RMK A01 T03350082  RH  022%=      5-min Rain = 0
KARS 122205Z 02005KT 33/08 A2995 RMK A01 T03340078  RH  021%=      5-min Rain = 0
KARS 122210Z 32007KT 33/08 A2994 RMK A01 T03320082  RH  022%=      5-min Rain = 0
KARS 122215Z 31005KT 32/08 A2994 RMK A01 T03240077  RH  022%=      5-min Rain = 0
KARS 122220Z 34005G10KT 33/08 A2994 RMK A01 T03260079  RH  022%=      5-min Rain = 0
KARS 122225Z 31005KT 33/08 A2994 RMK A01 T03280076  RH  022%=      5-min Rain = 0
KARS 122230Z 28005KT 32/08 A2994 RMK A01 T03240080  RH  023%=      5-min Rain = 0
KARS 122235Z 32003KT 32/09 A2994 RMK A01 T03180087  RH  025%=      5-min Rain = 0
KARS 122240Z 32002KT 32/08 A2994 RMK A01 T03160080  RH  024%=      5-min Rain = 0
KARS 122245Z 35002KT 32/09 A2994 RMK A01 T03160092  RH  026%=      5-min Rain = 0
KARS 122250Z 29002KT 32/10 A2994 RMK A01 T03190096  RH  026%=      5-min Rain = 0
KARS 122255Z 26003KT 32/08 A2994 RMK A01 T03230083  RH  023%=      5-min Rain = 0
KARS 122300Z 31002KT 33/08 A2994 RMK A01 T03260084  RH  023%=      5-min Rain = 0
KARS 122305Z 30001KT 33/09 A2994 RMK A01 T03300085  RH  023%=      5-min Rain = 0
KARS 122310Z 31002KT 33/08 A2994 RMK A01 T03320084  RH  022%=      5-min Rain = 0
KARS 122315Z 30001KT 33/08 A2993 RMK A01 T03330076  RH  021%=      5-min Rain = 0
KARS 122320Z 33001KT 33/08 A2993 RMK A01 T03340076  RH  021%=      5-min Rain = 0
KARS 122325Z 36002KT 33/09 A2993 RMK A01 T03330093  RH  024%=      5-min Rain = 0
KARS 122330Z 00003KT 33/10 A2993 RMK A01 T03270098  RH  025%=      5-min Rain = 0
KARS 122335Z 03003KT 32/10 A2993 RMK A01 T03230101  RH  026%=      5-min Rain = 0
KARS 122340Z 03004KT 32/10 A2993 RMK A01 T03200099  RH  026%=      5-min Rain = 0
KARS 122345Z 01004KT 32/11 A2993 RMK A01 T03160107  RH  029%=      5-min Rain = 0
KARS 122350Z 01005KT 31/11 A2993 RMK A01 T03120114  RH  031%=      5-min Rain = 0
KARS 122355Z 02005KT 31/11 A2993 RMK A01 T03080108  RH  030%=      5-min Rain = 0
KARS 130000Z 02005KT 31/10 A2993 RMK A01 T03070103  RH  029%=      5-min Rain = 0
KARS 130005Z 02005KT 30/11 A2992 RMK A01 T03040110  RH  031%=      5-min Rain = 0
KARS 130010Z 01005KT 30/11 A2992 RMK A01 T03010113  RH  033%=      5-min Rain = 0
KARS 130015Z 02005KT 30/12 A2992 RMK A01 T02970115  RH  034%=      5-min Rain = 0
KARS 130020Z 01004KT 29/12 A2992 RMK A01 T02930123  RH  036%=      5-min Rain = 0
KARS 130025Z 01005KT 29/13 A2992 RMK A01 T02880125  RH  038%=      5-min Rain = 0
KARS 130030Z 06009G14KT 28/12 A2993 RMK A01 T02840119  RH  037%=      5-min Rain = 0
KARS 130035Z 07010KT 28/12 A2993 RMK A01 T02820121  RH  038%=      5-min Rain = 0
KARS 130040Z 07008KT 28/12 A2993 RMK A01 T02780124  RH  040%=      5-min Rain = 0
KARS 130045Z 06006KT 27/13 A2993 RMK A01 T02740125  RH  041%=      5-min Rain = 0
KARS 130050Z 07007KT 27/13 A2993 RMK A01 T02670127  RH  043%=      5-min Rain = 0
KARS 130055Z 08009KT 26/13 A2993 RMK A01 T02630125  RH  044%=      5-min Rain = 0
KARS 130100Z 08009KT 26/12 A2993 RMK A01 T02620123  RH  044%=      5-min Rain = 0
KARS 130105Z 08009KT 26/12 A2993 RMK A01 T02610124  RH  044%=      5-min Rain = 0
KARS 130110Z 08008KT 26/13 A2993 RMK A01 T02550125  RH  046%=      5-min Rain = 0
KARS 130115Z 09009KT 25/12 A2993 RMK A01 T02530124  RH  046%=      5-min Rain = 0
KARS 130120Z 09008KT 25/13 A2994 RMK A01 T02530125  RH  047%=      5-min Rain = 0
KARS 130125Z 08008KT 25/13 A2994 RMK A01 T02510127  RH  048%=      5-min Rain = 0
KARS 130130Z 08008KT 25/13 A2994 RMK A01 T02460128  RH  050%=      5-min Rain = 0
KARS 130135Z 08008KT 24/13 A2994 RMK A01 T02440127  RH  050%=      5-min Rain = 0
KARS 130140Z 08008KT 24/13 A2994 RMK A01 T02410128  RH  051%=      5-min Rain = 0
KARS 130145Z 08008KT 24/13 A2994 RMK A01 T02380129  RH  052%=      5-min Rain = 0
KARS 130150Z 08008KT 23/13 A2995 RMK A01 T02340128  RH  053%=      5-min Rain = 0
KARS 130155Z 08008KT 23/13 A2995 RMK A01 T02320127  RH  054%=      5-min Rain = 0
KARS 130200Z 08008KT 23/13 A2995 RMK A01 T02310127  RH  054%=      5-min Rain = 0
KARS 130205Z 08008KT 23/13 A2995 RMK A01 T02300127  RH  054%=      5-min Rain = 0
KARS 130210Z 08007KT 23/13 A2995 RMK A01 T02270128  RH  056%=      5-min Rain = 0
KARS 130215Z 08006KT 22/13 A2996 RMK A01 T02230128  RH  057%=      5-min Rain = 0
KARS 130220Z 08007KT 22/13 A2996 RMK A01 T02220126  RH  057%=      5-min Rain = 0
KARS 130225Z 09007KT 22/13 A2996 RMK A01 T02240126  RH  056%=      5-min Rain = 0
KARS 130230Z 09008KT 22/13 A2996 RMK A01 T02230125  RH  056%=      5-min Rain = 0
KARS 130235Z 08007KT 22/13 A2996 RMK A01 T02210125  RH  057%=      5-min Rain = 0
KARS 130240Z 09007KT 22/13 A2997 RMK A01 T02190127  RH  058%=      5-min Rain = 0
KARS 130245Z 08007KT 22/13 A2997 RMK A01 T02160125  RH  058%=      5-min Rain = 0
KARS 130250Z 09007KT 22/13 A2997 RMK A01 T02160125  RH  058%=      5-min Rain = 0
KARS 130255Z 09007KT 21/13 A2997 RMK A01 T02130126  RH  060%=      5-min Rain = 0
KARS 130300Z 09005KT 21/13 A2997 RMK A01 T02090126  RH  061%=      5-min Rain = 0
KARS 130305Z 09006KT 21/13 A2997 RMK A01 T02060126  RH  063%=      5-min Rain = 0
KARS 130310Z 10006KT 20/13 A2997 RMK A01 T02020127  RH  064%=      5-min Rain = 0
KARS 130315Z 10006KT 20/13 A2997 RMK A01 T02000128  RH  066%=      5-min Rain = 0
KARS 130320Z 10007KT 20/13 A2997 RMK A01 T01980128  RH  067%=      5-min Rain = 0
KARS 130325Z 09007KT 20/13 A2997 RMK A01 T01970127  RH  067%=      5-min Rain = 0
KARS 130330Z 10006KT 20/13 A2997 RMK A01 T01990127  RH  066%=      5-min Rain = 0
KARS 130335Z 10007KT 20/13 A2998 RMK A01 T01960127  RH  067%=      5-min Rain = 0
KARS 130340Z 09007KT 19/13 A2997 RMK A01 T01930127  RH  068%=      5-min Rain = 0
KARS 130345Z 10006KT 19/13 A2997 RMK A01 T01920127  RH  068%=      5-min Rain = 0
KARS 130350Z 10007KT 19/13 A2997 RMK A01 T01900127  RH  070%=      5-min Rain = 0
KARS 130355Z 10007KT 19/13 A2997 RMK A01 T01860126  RH  071%=      5-min Rain = 0
KARS 130400Z 10007KT 19/13 A2997 RMK A01 T01860127  RH  071%=      5-min Rain = 0
KARS 130405Z 11006KT 19/13 A2998 RMK A01 T01860126  RH  071%=      5-min Rain = 0
KARS 130410Z 11006KT 18/13 A2998 RMK A01 T01830125  RH  072%=      5-min Rain = 0
KARS 130415Z 11007KT 18/13 A2997 RMK A01 T01800126  RH  074%=      5-min Rain = 0
KARS 130420Z 10008KT 18/13 A2998 RMK A01 T01790126  RH  074%=      5-min Rain = 0
KARS 130425Z 11007KT 18/13 A2998 RMK A01 T01810125  RH  072%=      5-min Rain = 0
KARS 130430Z 12007KT 18/12 A2998 RMK A01 T01810124  RH  072%=      5-min Rain = 0
KARS 130435Z 11006KT 18/12 A2998 RMK A01 T01820122  RH  071%=      5-min Rain = 0
KARS 130440Z 12006KT 18/12 A2998 RMK A01 T01820122  RH  071%=      5-min Rain = 0
KARS 130445Z 12006KT 18/12 A2998 RMK A01 T01800123  RH  072%=      5-min Rain = 0
KARS 130450Z 12007KT 18/12 A2998 RMK A01 T01780123  RH  073%=      5-min Rain = 0
KARS 130455Z 12006KT 18/12 A2998 RMK A01 T01790122  RH  072%=      5-min Rain = 0

Page generated in 0.0256 seconds.